sensor_id;sensor_type;location;lat;lon;timestamp;P1;durP1;ratioP1;P2;durP2;ratioP2
48835;SDS011;62581;47.342;7.908;2024-02-16T00:01:00;12.98;;;7.88;;
48835;SDS011;62581;47.342;7.908;2024-02-16T00:03:28;13.00;;;7.57;;
48835;SDS011;62581;47.342;7.908;2024-02-16T00:05:55;10.77;;;7.47;;
48835;SDS011;62581;47.342;7.908;2024-02-16T00:08:22;12.55;;;7.60;;
48835;SDS011;62581;47.342;7.908;2024-02-16T00:10:50;10.88;;;7.07;;
48835;SDS011;62581;47.342;7.908;2024-02-16T00:13:17;13.05;;;7.43;;
48835;SDS011;62581;47.342;7.908;2024-02-16T00:15:44;14.23;;;7.22;;
48835;SDS011;62581;47.342;7.908;2024-02-16T00:18:11;10.82;;;7.22;;
48835;SDS011;62581;47.342;7.908;2024-02-16T00:20:38;13.18;;;7.85;;
48835;SDS011;62581;47.342;7.908;2024-02-16T00:23:05;12.95;;;8.18;;
48835;SDS011;62581;47.342;7.908;2024-02-16T00:25:32;13.60;;;7.82;;
48835;SDS011;62581;47.342;7.908;2024-02-16T00:28:01;11.57;;;7.50;;
48835;SDS011;62581;47.342;7.908;2024-02-16T00:30:28;11.98;;;8.45;;
48835;SDS011;62581;47.342;7.908;2024-02-16T00:32:55;14.57;;;7.85;;
48835;SDS011;62581;47.342;7.908;2024-02-16T00:35:22;14.35;;;7.45;;
48835;SDS011;62581;47.342;7.908;2024-02-16T00:37:49;13.80;;;7.57;;
48835;SDS011;62581;47.342;7.908;2024-02-16T00:40:17;12.38;;;8.00;;
48835;SDS011;62581;47.342;7.908;2024-02-16T00:42:44;11.85;;;7.43;;
48835;SDS011;62581;47.342;7.908;2024-02-16T00:45:12;13.77;;;7.90;;
48835;SDS011;62581;47.342;7.908;2024-02-16T00:47:39;10.93;;;7.50;;
48835;SDS011;62581;47.342;7.908;2024-02-16T00:50:06;12.52;;;8.07;;
48835;SDS011;62581;47.342;7.908;2024-02-16T00:52:34;12.02;;;7.80;;
48835;SDS011;62581;47.342;7.908;2024-02-16T00:55:02;11.17;;;8.03;;
48835;SDS011;62581;47.342;7.908;2024-02-16T00:57:29;14.27;;;8.70;;
48835;SDS011;62581;47.342;7.908;2024-02-16T01:02:26;15.35;;;7.20;;
48835;SDS011;62581;47.342;7.908;2024-02-16T01:04:54;14.93;;;7.90;;
48835;SDS011;62581;47.342;7.908;2024-02-16T01:07:26;13.07;;;7.70;;
48835;SDS011;62581;47.342;7.908;2024-02-16T01:09:54;12.70;;;7.30;;
48835;SDS011;62581;47.342;7.908;2024-02-16T01:12:21;13.35;;;7.85;;
48835;SDS011;62581;47.342;7.908;2024-02-16T01:14:48;13.48;;;7.50;;
48835;SDS011;62581;47.342;7.908;2024-02-16T01:17:15;12.15;;;6.93;;
48835;SDS011;62581;47.342;7.908;2024-02-16T01:19:43;14.05;;;7.65;;
48835;SDS011;62581;47.342;7.908;2024-02-16T01:22:12;12.00;;;7.80;;
48835;SDS011;62581;47.342;7.908;2024-02-16T01:24:39;11.80;;;8.23;;
48835;SDS011;62581;47.342;7.908;2024-02-16T01:27:06;12.35;;;8.00;;
48835;SDS011;62581;47.342;7.908;2024-02-16T01:29:33;13.65;;;8.05;;
48835;SDS011;62581;47.342;7.908;2024-02-16T01:32:00;14.95;;;8.55;;
48835;SDS011;62581;47.342;7.908;2024-02-16T01:34:27;11.63;;;7.97;;
48835;SDS011;62581;47.342;7.908;2024-02-16T01:36:58;12.98;;;7.55;;
48835;SDS011;62581;47.342;7.908;2024-02-16T01:39:25;15.77;;;8.95;;
48835;SDS011;62581;47.342;7.908;2024-02-16T01:41:52;13.55;;;7.97;;
48835;SDS011;62581;47.342;7.908;2024-02-16T01:44:19;14.55;;;7.97;;
48835;SDS011;62581;47.342;7.908;2024-02-16T01:46:46;12.32;;;7.47;;
48835;SDS011;62581;47.342;7.908;2024-02-16T01:49:13;14.90;;;8.63;;
48835;SDS011;62581;47.342;7.908;2024-02-16T01:51:41;13.93;;;8.07;;
48835;SDS011;62581;47.342;7.908;2024-02-16T01:54:11;13.68;;;7.80;;
48835;SDS011;62581;47.342;7.908;2024-02-16T01:59:05;11.57;;;7.40;;
48835;SDS011;62581;47.342;7.908;2024-02-16T02:01:32;10.75;;;7.70;;
48835;SDS011;62581;47.342;7.908;2024-02-16T02:03:59;12.63;;;7.85;;
48835;SDS011;62581;47.342;7.908;2024-02-16T02:06:27;11.40;;;8.13;;
48835;SDS011;62581;47.342;7.908;2024-02-16T02:08:54;14.93;;;9.10;;
48835;SDS011;62581;47.342;7.908;2024-02-16T02:11:22;16.42;;;7.85;;
48835;SDS011;62581;47.342;7.908;2024-02-16T02:13:49;13.60;;;7.80;;
48835;SDS011;62581;47.342;7.908;2024-02-16T02:16:16;17.88;;;8.98;;
48835;SDS011;62581;47.342;7.908;2024-02-16T02:18:45;14.82;;;8.60;;
48835;SDS011;62581;47.342;7.908;2024-02-16T02:21:12;13.40;;;8.50;;
48835;SDS011;62581;47.342;7.908;2024-02-16T02:23:41;13.93;;;8.45;;
48835;SDS011;62581;47.342;7.908;2024-02-16T02:26:07;10.90;;;7.65;;
48835;SDS011;62581;47.342;7.908;2024-02-16T02:28:34;13.45;;;8.38;;
48835;SDS011;62581;47.342;7.908;2024-02-16T02:31:01;13.23;;;8.70;;
48835;SDS011;62581;47.342;7.908;2024-02-16T02:33:29;12.98;;;8.68;;
48835;SDS011;62581;47.342;7.908;2024-02-16T02:35:56;13.85;;;9.23;;
48835;SDS011;62581;47.342;7.908;2024-02-16T02:38:23;13.60;;;9.27;;
48835;SDS011;62581;47.342;7.908;2024-02-16T02:40:52;14.68;;;9.00;;
48835;SDS011;62581;47.342;7.908;2024-02-16T02:43:19;13.77;;;8.88;;
48835;SDS011;62581;47.342;7.908;2024-02-16T02:45:47;13.10;;;8.17;;
48835;SDS011;62581;47.342;7.908;2024-02-16T02:48:14;13.73;;;9.00;;
48835;SDS011;62581;47.342;7.908;2024-02-16T02:50:41;13.73;;;8.85;;
48835;SDS011;62581;47.342;7.908;2024-02-16T02:53:08;15.27;;;9.13;;
48835;SDS011;62581;47.342;7.908;2024-02-16T02:55:35;12.57;;;9.15;;
48835;SDS011;62581;47.342;7.908;2024-02-16T02:58:03;16.70;;;9.32;;
48835;SDS011;62581;47.342;7.908;2024-02-16T03:00:30;13.90;;;9.27;;
48835;SDS011;62581;47.342;7.908;2024-02-16T03:02:57;12.70;;;8.10;;
48835;SDS011;62581;47.342;7.908;2024-02-16T03:05:24;12.15;;;8.95;;
48835;SDS011;62581;47.342;7.908;2024-02-16T03:07:51;12.93;;;8.80;;
48835;SDS011;62581;47.342;7.908;2024-02-16T03:10:19;13.57;;;8.75;;
48835;SDS011;62581;47.342;7.908;2024-02-16T03:12:48;17.77;;;8.90;;
48835;SDS011;62581;47.342;7.908;2024-02-16T03:15:17;15.23;;;8.95;;
48835;SDS011;62581;47.342;7.908;2024-02-16T03:17:44;12.73;;;8.77;;
48835;SDS011;62581;47.342;7.908;2024-02-16T03:20:11;12.25;;;8.60;;
48835;SDS011;62581;47.342;7.908;2024-02-16T03:22:38;19.05;;;9.20;;
48835;SDS011;62581;47.342;7.908;2024-02-16T03:25:05;11.50;;;8.70;;
48835;SDS011;62581;47.342;7.908;2024-02-16T03:27:32;12.82;;;9.02;;
48835;SDS011;62581;47.342;7.908;2024-02-16T03:29:59;15.75;;;10.15;;
48835;SDS011;62581;47.342;7.908;2024-02-16T03:32:28;18.35;;;9.45;;
48835;SDS011;62581;47.342;7.908;2024-02-16T03:37:23;16.52;;;9.18;;
48835;SDS011;62581;47.342;7.908;2024-02-16T03:39:50;13.57;;;9.05;;
48835;SDS011;62581;47.342;7.908;2024-02-16T03:42:17;12.15;;;9.00;;
48835;SDS011;62581;47.342;7.908;2024-02-16T03:44:44;14.40;;;9.70;;
48835;SDS011;62581;47.342;7.908;2024-02-16T03:47:11;15.95;;;8.70;;
48835;SDS011;62581;47.342;7.908;2024-02-16T03:49:40;13.60;;;9.52;;
48835;SDS011;62581;47.342;7.908;2024-02-16T03:52:08;15.82;;;10.10;;
48835;SDS011;62581;47.342;7.908;2024-02-16T03:54:35;16.92;;;9.02;;
48835;SDS011;62581;47.342;7.908;2024-02-16T03:57:02;14.35;;;9.50;;
48835;SDS011;62581;47.342;7.908;2024-02-16T03:59:34;18.92;;;9.95;;
48835;SDS011;62581;47.342;7.908;2024-02-16T04:02:01;15.30;;;9.65;;
48835;SDS011;62581;47.342;7.908;2024-02-16T04:04:28;12.77;;;8.80;;
48835;SDS011;62581;47.342;7.908;2024-02-16T04:06:56;12.20;;;9.07;;
48835;SDS011;62581;47.342;7.908;2024-02-16T04:09:23;14.30;;;9.70;;
48835;SDS011;62581;47.342;7.908;2024-02-16T04:11:50;12.13;;;8.70;;
48835;SDS011;62581;47.342;7.908;2024-02-16T04:14:17;15.00;;;9.38;;
48835;SDS011;62581;47.342;7.908;2024-02-16T04:16:44;12.15;;;8.73;;
48835;SDS011;62581;47.342;7.908;2024-02-16T04:19:11;14.38;;;8.95;;
48835;SDS011;62581;47.342;7.908;2024-02-16T04:21:38;13.52;;;8.85;;
48835;SDS011;62581;47.342;7.908;2024-02-16T04:24:07;15.85;;;9.68;;
48835;SDS011;62581;47.342;7.908;2024-02-16T04:26:34;21.55;;;9.73;;
48835;SDS011;62581;47.342;7.908;2024-02-16T04:29:01;13.80;;;9.40;;
48835;SDS011;62581;47.342;7.908;2024-02-16T04:31:29;16.00;;;10.57;;
48835;SDS011;62581;47.342;7.908;2024-02-16T04:33:56;16.85;;;10.00;;
48835;SDS011;62581;47.342;7.908;2024-02-16T04:36:23;16.77;;;10.68;;
48835;SDS011;62581;47.342;7.908;2024-02-16T04:38:50;15.65;;;10.02;;
48835;SDS011;62581;47.342;7.908;2024-02-16T04:41:20;15.85;;;10.10;;
48835;SDS011;62581;47.342;7.908;2024-02-16T04:43:47;17.48;;;10.52;;
48835;SDS011;62581;47.342;7.908;2024-02-16T04:46:14;13.15;;;9.57;;
48835;SDS011;62581;47.342;7.908;2024-02-16T04:48:41;15.50;;;9.27;;
48835;SDS011;62581;47.342;7.908;2024-02-16T04:51:09;17.00;;;9.80;;
48835;SDS011;62581;47.342;7.908;2024-02-16T04:56:04;16.35;;;10.32;;
48835;SDS011;62581;47.342;7.908;2024-02-16T04:58:33;17.05;;;10.07;;
48835;SDS011;62581;47.342;7.908;2024-02-16T05:01:00;17.25;;;10.07;;
48835;SDS011;62581;47.342;7.908;2024-02-16T05:03:27;16.33;;;10.65;;
48835;SDS011;62581;47.342;7.908;2024-02-16T05:05:54;22.42;;;9.73;;
48835;SDS011;62581;47.342;7.908;2024-02-16T05:08:22;15.75;;;10.18;;
48835;SDS011;62581;47.342;7.908;2024-02-16T05:10:49;15.55;;;9.63;;
48835;SDS011;62581;47.342;7.908;2024-02-16T05:13:16;16.75;;;10.30;;
48835;SDS011;62581;47.342;7.908;2024-02-16T05:15:44;16.40;;;10.57;;
48835;SDS011;62581;47.342;7.908;2024-02-16T05:18:13;20.02;;;10.45;;
48835;SDS011;62581;47.342;7.908;2024-02-16T05:20:42;18.30;;;10.57;;
48835;SDS011;62581;47.342;7.908;2024-02-16T05:23:09;16.65;;;10.15;;
48835;SDS011;62581;47.342;7.908;2024-02-16T05:25:36;16.25;;;9.93;;
48835;SDS011;62581;47.342;7.908;2024-02-16T05:28:04;15.52;;;9.88;;
48835;SDS011;62581;47.342;7.908;2024-02-16T05:30:31;11.52;;;8.65;;
48835;SDS011;62581;47.342;7.908;2024-02-16T05:32:59;16.63;;;10.18;;
48835;SDS011;62581;47.342;7.908;2024-02-16T05:35:27;17.35;;;11.07;;
48835;SDS011;62581;47.342;7.908;2024-02-16T05:37:58;17.13;;;10.68;;
48835;SDS011;62581;47.342;7.908;2024-02-16T05:40:32;18.58;;;10.10;;
48835;SDS011;62581;47.342;7.908;2024-02-16T05:43:10;17.77;;;10.57;;
48835;SDS011;62581;47.342;7.908;2024-02-16T05:45:37;16.88;;;10.55;;
48835;SDS011;62581;47.342;7.908;2024-02-16T05:48:08;17.70;;;9.82;;
48835;SDS011;62581;47.342;7.908;2024-02-16T05:50:36;15.95;;;10.35;;
48835;SDS011;62581;47.342;7.908;2024-02-16T05:53:03;13.93;;;9.50;;
48835;SDS011;62581;47.342;7.908;2024-02-16T05:55:30;17.90;;;10.45;;
48835;SDS011;62581;47.342;7.908;2024-02-16T05:57:57;15.25;;;10.50;;
48835;SDS011;62581;47.342;7.908;2024-02-16T06:00:24;19.13;;;9.70;;
48835;SDS011;62581;47.342;7.908;2024-02-16T06:02:52;14.43;;;9.70;;
48835;SDS011;62581;47.342;7.908;2024-02-16T06:05:20;13.55;;;8.90;;
48835;SDS011;62581;47.342;7.908;2024-02-16T06:07:47;16.40;;;10.43;;
48835;SDS011;62581;47.342;7.908;2024-02-16T06:10:14;14.30;;;9.57;;
48835;SDS011;62581;47.342;7.908;2024-02-16T06:12:43;15.77;;;10.60;;
48835;SDS011;62581;47.342;7.908;2024-02-16T06:15:10;17.77;;;10.50;;
48835;SDS011;62581;47.342;7.908;2024-02-16T06:17:37;18.80;;;10.45;;
48835;SDS011;62581;47.342;7.908;2024-02-16T06:20:06;13.57;;;9.48;;
48835;SDS011;62581;47.342;7.908;2024-02-16T06:22:36;17.10;;;9.48;;
48835;SDS011;62581;47.342;7.908;2024-02-16T06:25:03;19.35;;;9.75;;
48835;SDS011;62581;47.342;7.908;2024-02-16T06:27:30;14.48;;;9.32;;
48835;SDS011;62581;47.342;7.908;2024-02-16T06:29:57;15.75;;;9.77;;
48835;SDS011;62581;47.342;7.908;2024-02-16T06:32:24;15.02;;;9.70;;
48835;SDS011;62581;47.342;7.908;2024-02-16T06:34:51;17.05;;;10.40;;
48835;SDS011;62581;47.342;7.908;2024-02-16T06:37:18;19.02;;;10.45;;
48835;SDS011;62581;47.342;7.908;2024-02-16T06:39:47;19.00;;;10.88;;
48835;SDS011;62581;47.342;7.908;2024-02-16T06:42:14;17.48;;;11.13;;
48835;SDS011;62581;47.342;7.908;2024-02-16T06:44:41;14.13;;;9.55;;
48835;SDS011;62581;47.342;7.908;2024-02-16T06:47:08;16.20;;;10.40;;
48835;SDS011;62581;47.342;7.908;2024-02-16T06:49:35;21.02;;;11.60;;
48835;SDS011;62581;47.342;7.908;2024-02-16T06:52:03;18.55;;;10.40;;
48835;SDS011;62581;47.342;7.908;2024-02-16T06:54:31;20.15;;;10.73;;
48835;SDS011;62581;47.342;7.908;2024-02-16T06:56:59;19.38;;;11.07;;
48835;SDS011;62581;47.342;7.908;2024-02-16T06:59:26;18.85;;;11.23;;
48835;SDS011;62581;47.342;7.908;2024-02-16T07:01:53;19.50;;;10.82;;
48835;SDS011;62581;47.342;7.908;2024-02-16T07:04:20;17.50;;;11.00;;
48835;SDS011;62581;47.342;7.908;2024-02-16T07:06:47;19.35;;;11.35;;
48835;SDS011;62581;47.342;7.908;2024-02-16T07:09:14;18.58;;;10.80;;
48835;SDS011;62581;47.342;7.908;2024-02-16T07:11:41;18.50;;;10.55;;
48835;SDS011;62581;47.342;7.908;2024-02-16T07:14:12;18.02;;;11.27;;
48835;SDS011;62581;47.342;7.908;2024-02-16T07:16:39;19.80;;;10.45;;
48835;SDS011;62581;47.342;7.908;2024-02-16T07:19:06;17.20;;;10.40;;
48835;SDS011;62581;47.342;7.908;2024-02-16T07:21:34;15.15;;;10.75;;
48835;SDS011;62581;47.342;7.908;2024-02-16T07:24:01;18.42;;;11.25;;
48835;SDS011;62581;47.342;7.908;2024-02-16T07:26:28;16.85;;;11.05;;
48835;SDS011;62581;47.342;7.908;2024-02-16T07:28:55;17.77;;;11.30;;
48835;SDS011;62581;47.342;7.908;2024-02-16T07:31:24;19.65;;;11.40;;
48835;SDS011;62581;47.342;7.908;2024-02-16T07:33:51;19.55;;;11.40;;
48835;SDS011;62581;47.342;7.908;2024-02-16T07:36:18;23.38;;;11.52;;
48835;SDS011;62581;47.342;7.908;2024-02-16T07:38:44;19.00;;;10.95;;
48835;SDS011;62581;47.342;7.908;2024-02-16T07:41:12;19.80;;;11.45;;
48835;SDS011;62581;47.342;7.908;2024-02-16T07:43:39;18.63;;;11.13;;
48835;SDS011;62581;47.342;7.908;2024-02-16T07:46:06;23.00;;;11.38;;
48835;SDS011;62581;47.342;7.908;2024-02-16T07:48:34;17.80;;;10.65;;
48835;SDS011;62581;47.342;7.908;2024-02-16T07:51:01;16.00;;;9.85;;
48835;SDS011;62581;47.342;7.908;2024-02-16T07:53:29;16.25;;;10.40;;
48835;SDS011;62581;47.342;7.908;2024-02-16T07:55:56;14.47;;;9.93;;
48835;SDS011;62581;47.342;7.908;2024-02-16T07:58:24;16.15;;;10.20;;
48835;SDS011;62581;47.342;7.908;2024-02-16T08:00:51;21.75;;;10.40;;
48835;SDS011;62581;47.342;7.908;2024-02-16T08:03:19;17.88;;;9.90;;
48835;SDS011;62581;47.342;7.908;2024-02-16T08:05:47;19.30;;;9.40;;
48835;SDS011;62581;47.342;7.908;2024-02-16T08:08:14;14.48;;;9.63;;
48835;SDS011;62581;47.342;7.908;2024-02-16T08:10:41;17.60;;;9.40;;
48835;SDS011;62581;47.342;7.908;2024-02-16T08:13:08;14.38;;;8.93;;
48835;SDS011;62581;47.342;7.908;2024-02-16T08:15:35;16.50;;;9.70;;
48835;SDS011;62581;47.342;7.908;2024-02-16T08:18:02;13.68;;;9.10;;
48835;SDS011;62581;47.342;7.908;2024-02-16T08:20:30;16.02;;;8.77;;
48835;SDS011;62581;47.342;7.908;2024-02-16T08:22:59;17.38;;;9.52;;
48835;SDS011;62581;47.342;7.908;2024-02-16T08:25:25;13.10;;;8.25;;
48835;SDS011;62581;47.342;7.908;2024-02-16T08:27:53;15.55;;;9.13;;
48835;SDS011;62581;47.342;7.908;2024-02-16T08:30:20;14.82;;;8.90;;
48835;SDS011;62581;47.342;7.908;2024-02-16T08:32:47;13.90;;;8.63;;
48835;SDS011;62581;47.342;7.908;2024-02-16T08:35:14;14.10;;;8.88;;
48835;SDS011;62581;47.342;7.908;2024-02-16T08:37:42;14.55;;;9.32;;
48835;SDS011;62581;47.342;7.908;2024-02-16T08:40:12;16.88;;;9.93;;
48835;SDS011;62581;47.342;7.908;2024-02-16T08:42:40;12.88;;;8.52;;
48835;SDS011;62581;47.342;7.908;2024-02-16T08:45:07;16.30;;;8.95;;
48835;SDS011;62581;47.342;7.908;2024-02-16T08:47:35;15.85;;;9.63;;
48835;SDS011;62581;47.342;7.908;2024-02-16T08:50:04;15.88;;;9.45;;
48835;SDS011;62581;47.342;7.908;2024-02-16T08:52:32;16.50;;;9.13;;
48835;SDS011;62581;47.342;7.908;2024-02-16T08:54:59;18.58;;;9.98;;
48835;SDS011;62581;47.342;7.908;2024-02-16T08:57:27;17.67;;;9.38;;
48835;SDS011;62581;47.342;7.908;2024-02-16T08:59:54;17.10;;;9.45;;
48835;SDS011;62581;47.342;7.908;2024-02-16T09:02:21;19.70;;;10.23;;
48835;SDS011;62581;47.342;7.908;2024-02-16T09:04:48;13.75;;;10.18;;
48835;SDS011;62581;47.342;7.908;2024-02-16T09:07:15;15.25;;;9.95;;
48835;SDS011;62581;47.342;7.908;2024-02-16T09:09:42;13.80;;;9.82;;
48835;SDS011;62581;47.342;7.908;2024-02-16T09:12:09;13.02;;;9.02;;
48835;SDS011;62581;47.342;7.908;2024-02-16T09:14:38;16.75;;;9.60;;
48835;SDS011;62581;47.342;7.908;2024-02-16T09:17:05;11.88;;;8.90;;
48835;SDS011;62581;47.342;7.908;2024-02-16T09:19:32;14.57;;;8.75;;
48835;SDS011;62581;47.342;7.908;2024-02-16T09:21:59;12.07;;;8.48;;
48835;SDS011;62581;47.342;7.908;2024-02-16T09:24:28;13.07;;;8.65;;
48835;SDS011;62581;47.342;7.908;2024-02-16T09:26:55;14.70;;;8.45;;
48835;SDS011;62581;47.342;7.908;2024-02-16T09:29:26;13.73;;;8.65;;
48835;SDS011;62581;47.342;7.908;2024-02-16T09:31:55;20.57;;;8.43;;
48835;SDS011;62581;47.342;7.908;2024-02-16T09:36:49;12.15;;;8.75;;
48835;SDS011;62581;47.342;7.908;2024-02-16T09:39:16;18.30;;;8.23;;
48835;SDS011;62581;47.342;7.908;2024-02-16T09:41:43;15.98;;;8.57;;
48835;SDS011;62581;47.342;7.908;2024-02-16T09:44:16;16.15;;;8.90;;
48835;SDS011;62581;47.342;7.908;2024-02-16T09:46:43;13.10;;;7.88;;
48835;SDS011;62581;47.342;7.908;2024-02-16T09:49:12;15.15;;;8.63;;
48835;SDS011;62581;47.342;7.908;2024-02-16T09:51:39;12.32;;;7.70;;
48835;SDS011;62581;47.342;7.908;2024-02-16T09:54:06;13.65;;;7.80;;
48835;SDS011;62581;47.342;7.908;2024-02-16T09:56:33;12.43;;;8.15;;
48835;SDS011;62581;47.342;7.908;2024-02-16T09:59:00;13.48;;;8.90;;
48835;SDS011;62581;47.342;7.908;2024-02-16T10:01:27;12.98;;;9.35;;
48835;SDS011;62581;47.342;7.908;2024-02-16T10:03:59;15.77;;;9.27;;
48835;SDS011;62581;47.342;7.908;2024-02-16T10:06:44;19.05;;;10.55;;
48835;SDS011;62581;47.342;7.908;2024-02-16T10:09:21;16.58;;;9.40;;
48835;SDS011;62581;47.342;7.908;2024-02-16T10:11:49;18.83;;;10.00;;
48835;SDS011;62581;47.342;7.908;2024-02-16T10:14:16;20.88;;;9.77;;
48835;SDS011;62581;47.342;7.908;2024-02-16T10:16:44;17.02;;;9.60;;
48835;SDS011;62581;47.342;7.908;2024-02-16T10:19:12;13.82;;;8.80;;
48835;SDS011;62581;47.342;7.908;2024-02-16T10:21:41;15.27;;;9.65;;
48835;SDS011;62581;47.342;7.908;2024-02-16T10:24:08;11.55;;;8.50;;
48835;SDS011;62581;47.342;7.908;2024-02-16T10:26:36;12.32;;;8.48;;
48835;SDS011;62581;47.342;7.908;2024-02-16T10:29:04;13.10;;;9.13;;
48835;SDS011;62581;47.342;7.908;2024-02-16T10:31:33;19.60;;;8.88;;
48835;SDS011;62581;47.342;7.908;2024-02-16T10:34:01;18.20;;;10.50;;
48835;SDS011;62581;47.342;7.908;2024-02-16T10:36:31;15.55;;;8.95;;
48835;SDS011;62581;47.342;7.908;2024-02-16T10:41:29;15.68;;;9.10;;
48835;SDS011;62581;47.342;7.908;2024-02-16T10:43:59;15.77;;;9.63;;
48835;SDS011;62581;47.342;7.908;2024-02-16T10:46:27;11.95;;;8.35;;
48835;SDS011;62581;47.342;7.908;2024-02-16T10:48:54;15.63;;;8.80;;
48835;SDS011;62581;47.342;7.908;2024-02-16T10:51:23;17.08;;;8.95;;
48835;SDS011;62581;47.342;7.908;2024-02-16T10:53:55;14.40;;;9.13;;
48835;SDS011;62581;47.342;7.908;2024-02-16T10:58:59;12.80;;;8.45;;
48835;SDS011;62581;47.342;7.908;2024-02-16T11:01:27;14.32;;;8.52;;
48835;SDS011;62581;47.342;7.908;2024-02-16T11:04:00;13.63;;;8.55;;
48835;SDS011;62581;47.342;7.908;2024-02-16T11:06:28;14.45;;;8.70;;
48835;SDS011;62581;47.342;7.908;2024-02-16T11:09:00;14.80;;;8.57;;
48835;SDS011;62581;47.342;7.908;2024-02-16T11:11:34;13.52;;;8.55;;
48835;SDS011;62581;47.342;7.908;2024-02-16T11:14:01;13.75;;;8.35;;
48835;SDS011;62581;47.342;7.908;2024-02-16T11:16:29;15.57;;;8.07;;
48835;SDS011;62581;47.342;7.908;2024-02-16T11:18:56;11.70;;;7.45;;
48835;SDS011;62581;47.342;7.908;2024-02-16T11:21:23;11.65;;;8.27;;
48835;SDS011;62581;47.342;7.908;2024-02-16T11:23:50;12.43;;;7.95;;
48835;SDS011;62581;47.342;7.908;2024-02-16T11:26:17;9.52;;;7.45;;
48835;SDS011;62581;47.342;7.908;2024-02-16T11:28:46;16.13;;;7.93;;
48835;SDS011;62581;47.342;7.908;2024-02-16T11:31:13;10.20;;;7.10;;
48835;SDS011;62581;47.342;7.908;2024-02-16T11:33:43;10.52;;;7.13;;
48835;SDS011;62581;47.342;7.908;2024-02-16T11:36:11;13.30;;;7.35;;
48835;SDS011;62581;47.342;7.908;2024-02-16T11:38:39;13.55;;;7.43;;
48835;SDS011;62581;47.342;7.908;2024-02-16T11:41:06;13.57;;;7.53;;
48835;SDS011;62581;47.342;7.908;2024-02-16T11:43:34;13.13;;;7.35;;
48835;SDS011;62581;47.342;7.908;2024-02-16T11:46:12;16.08;;;7.40;;
48835;SDS011;62581;47.342;7.908;2024-02-16T11:48:39;11.75;;;7.22;;
48835;SDS011;62581;47.342;7.908;2024-02-16T11:51:06;15.05;;;7.15;;
48835;SDS011;62581;47.342;7.908;2024-02-16T11:53:33;11.65;;;7.80;;
48835;SDS011;62581;47.342;7.908;2024-02-16T11:56:00;11.02;;;7.70;;
48835;SDS011;62581;47.342;7.908;2024-02-16T11:58:28;10.85;;;6.85;;
48835;SDS011;62581;47.342;7.908;2024-02-16T12:00:56;10.05;;;7.45;;
48835;SDS011;62581;47.342;7.908;2024-02-16T12:03:26;14.70;;;8.48;;
48835;SDS011;62581;47.342;7.908;2024-02-16T12:05:53;11.88;;;7.75;;
48835;SDS011;62581;47.342;7.908;2024-02-16T12:08:22;19.65;;;8.85;;
48835;SDS011;62581;47.342;7.908;2024-02-16T12:10:50;16.23;;;8.17;;
48835;SDS011;62581;47.342;7.908;2024-02-16T12:13:18;12.85;;;7.72;;
48835;SDS011;62581;47.342;7.908;2024-02-16T12:15:46;15.65;;;8.70;;
48835;SDS011;62581;47.342;7.908;2024-02-16T12:18:20;15.23;;;7.75;;
48835;SDS011;62581;47.342;7.908;2024-02-16T12:20:58;12.15;;;8.07;;
48835;SDS011;62581;47.342;7.908;2024-02-16T12:23:26;13.55;;;7.32;;
48835;SDS011;62581;47.342;7.908;2024-02-16T12:25:53;12.10;;;7.13;;
48835;SDS011;62581;47.342;7.908;2024-02-16T12:28:23;11.85;;;7.78;;
48835;SDS011;62581;47.342;7.908;2024-02-16T12:30:51;13.43;;;7.78;;
48835;SDS011;62581;47.342;7.908;2024-02-16T12:33:18;15.50;;;8.07;;
48835;SDS011;62581;47.342;7.908;2024-02-16T12:35:45;11.90;;;7.50;;
48835;SDS011;62581;47.342;7.908;2024-02-16T12:38:13;14.05;;;7.53;;
48835;SDS011;62581;47.342;7.908;2024-02-16T12:40:42;14.30;;;7.95;;
48835;SDS011;62581;47.342;7.908;2024-02-16T12:43:09;13.02;;;7.63;;
48835;SDS011;62581;47.342;7.908;2024-02-16T12:45:37;12.43;;;7.30;;
48835;SDS011;62581;47.342;7.908;2024-02-16T12:48:05;10.85;;;7.65;;
48835;SDS011;62581;47.342;7.908;2024-02-16T12:50:32;10.40;;;7.73;;
48835;SDS011;62581;47.342;7.908;2024-02-16T12:52:59;12.65;;;7.97;;
48835;SDS011;62581;47.342;7.908;2024-02-16T12:55:28;12.25;;;7.95;;
48835;SDS011;62581;47.342;7.908;2024-02-16T12:57:55;13.00;;;8.18;;
48835;SDS011;62581;47.342;7.908;2024-02-16T13:00:22;13.30;;;7.97;;
48835;SDS011;62581;47.342;7.908;2024-02-16T13:02:50;14.38;;;7.72;;
48835;SDS011;62581;47.342;7.908;2024-02-16T13:05:17;14.05;;;8.50;;
48835;SDS011;62581;47.342;7.908;2024-02-16T13:07:44;15.30;;;7.63;;
48835;SDS011;62581;47.342;7.908;2024-02-16T13:10:11;12.55;;;6.55;;
48835;SDS011;62581;47.342;7.908;2024-02-16T13:12:39;10.25;;;5.95;;
48835;SDS011;62581;47.342;7.908;2024-02-16T13:15:08;10.43;;;6.10;;
48835;SDS011;62581;47.342;7.908;2024-02-16T13:17:35;11.32;;;6.15;;
48835;SDS011;62581;47.342;7.908;2024-02-16T13:20:02;10.77;;;6.65;;
48835;SDS011;62581;47.342;7.908;2024-02-16T13:22:34;7.75;;;5.80;;
48835;SDS011;62581;47.342;7.908;2024-02-16T13:25:02;9.57;;;6.30;;
48835;SDS011;62581;47.342;7.908;2024-02-16T13:29:58;9.93;;;5.38;;
48835;SDS011;62581;47.342;7.908;2024-02-16T13:32:25;8.45;;;5.65;;
48835;SDS011;62581;47.342;7.908;2024-02-16T13:34:53;10.50;;;6.78;;
48835;SDS011;62581;47.342;7.908;2024-02-16T13:37:20;10.52;;;7.15;;
48835;SDS011;62581;47.342;7.908;2024-02-16T13:39:47;13.38;;;6.78;;
48835;SDS011;62581;47.342;7.908;2024-02-16T13:42:14;10.00;;;6.13;;
48835;SDS011;62581;47.342;7.908;2024-02-16T13:44:41;9.63;;;5.97;;
48835;SDS011;62581;47.342;7.908;2024-02-16T13:47:10;9.25;;;5.30;;
48835;SDS011;62581;47.342;7.908;2024-02-16T13:49:37;9.05;;;5.82;;
48835;SDS011;62581;47.342;7.908;2024-02-16T13:52:04;10.07;;;5.82;;
48835;SDS011;62581;47.342;7.908;2024-02-16T13:54:33;9.13;;;5.30;;
48835;SDS011;62581;47.342;7.908;2024-02-16T13:57:00;10.05;;;5.43;;
48835;SDS011;62581;47.342;7.908;2024-02-16T13:59:27;9.60;;;5.53;;
48835;SDS011;62581;47.342;7.908;2024-02-16T14:01:55;10.18;;;5.45;;
48835;SDS011;62581;47.342;7.908;2024-02-16T14:04:23;11.98;;;5.82;;
48835;SDS011;62581;47.342;7.908;2024-02-16T14:06:51;13.15;;;6.22;;
48835;SDS011;62581;47.342;7.908;2024-02-16T14:09:19;9.02;;;5.53;;
48835;SDS011;62581;47.342;7.908;2024-02-16T14:11:46;10.45;;;5.63;;
48835;SDS011;62581;47.342;7.908;2024-02-16T14:14:13;10.00;;;6.40;;
48835;SDS011;62581;47.342;7.908;2024-02-16T14:16:40;12.30;;;6.82;;
48835;SDS011;62581;47.342;7.908;2024-02-16T14:19:07;8.80;;;6.28;;
48835;SDS011;62581;47.342;7.908;2024-02-16T14:21:36;9.70;;;6.80;;
48835;SDS011;62581;47.342;7.908;2024-02-16T14:24:03;11.60;;;7.18;;
48835;SDS011;62581;47.342;7.908;2024-02-16T14:26:30;9.50;;;6.55;;
48835;SDS011;62581;47.342;7.908;2024-02-16T14:28:57;12.65;;;6.63;;
48835;SDS011;62581;47.342;7.908;2024-02-16T14:31:24;10.25;;;6.88;;
48835;SDS011;62581;47.342;7.908;2024-02-16T14:33:51;12.60;;;6.90;;
48835;SDS011;62581;47.342;7.908;2024-02-16T14:36:19;10.27;;;6.40;;
48835;SDS011;62581;47.342;7.908;2024-02-16T14:38:47;11.63;;;6.20;;
48835;SDS011;62581;47.342;7.908;2024-02-16T14:41:14;11.48;;;6.18;;
48835;SDS011;62581;47.342;7.908;2024-02-16T14:43:42;9.13;;;6.03;;
48835;SDS011;62581;47.342;7.908;2024-02-16T14:46:09;10.80;;;5.55;;
48835;SDS011;62581;47.342;7.908;2024-02-16T14:48:36;11.65;;;7.28;;
48835;SDS011;62581;47.342;7.908;2024-02-16T14:51:04;10.80;;;7.25;;
48835;SDS011;62581;47.342;7.908;2024-02-16T14:53:31;15.40;;;7.18;;
48835;SDS011;62581;47.342;7.908;2024-02-16T14:56:00;11.05;;;6.90;;